Time;durP1;ratioP1;P1;durP2;ratioP2;P2;SDS_P1;SDS_P2;PMS_P1;PMS_P2;Temp;Humidity;BMP_temperature;BMP_pressure;BME280_temperature;BME280_humidity;BME280_pressure;Samples;Min_cycle;Max_cycle;Signal;HPM_P1;HPM_P2
2021/04/10 00:00:57;;;;;;;8.85;6.18;;;13.80;63.20;;;;;;20748161;28;20524;-60
2021/04/10 00:10:58;;;;;;;11.43;6.53;;;13.80;63.30;;;;;;20747633;28;20425;-64
2021/04/10 00:20:59;;;;;;;12.85;6.35;;;13.80;63.30;;;;;;20748524;28;20045;-63
2021/04/10 00:31:06;;;;;;;11.23;6.57;;;13.80;63.40;;;;;;20748407;28;20073;-62
2021/04/10 00:41:08;;;;;;;8.68;5.47;;;13.70;63.30;;;;;;20744238;28;20054;-66
2021/04/10 00:51:10;;;;;;;9.77;6.47;;;13.70;63.50;;;;;;20762017;28;20425;-61
2021/04/10 01:01:10;;;;;;;10.75;6.07;;;13.60;63.60;;;;;;20760401;28;20141;-61
2021/04/10 01:11:28;;;;;;;8.55;5.78;;;13.50;63.60;;;;;;20759868;28;20034;-60
2021/04/10 01:21:46;;;;;;;10.45;5.80;;;13.50;63.50;;;;;;20757837;28;20042;-60
2021/04/10 01:31:51;;;;;;;8.88;5.10;;;13.40;63.50;;;;;;20759787;28;20026;-59
2021/04/10 01:41:54;;;;;;;8.50;5.25;;;13.30;63.80;;;;;;20757544;28;20097;-60
2021/04/10 01:51:57;;;;;;;8.52;5.45;;;13.30;63.60;;;;;;20756547;28;20026;-62
2021/04/10 02:01:59;;;;;;;10.75;5.60;;;13.20;63.80;;;;;;20738193;28;20161;-64
2021/04/10 02:12:00;;;;;;;10.75;5.60;;;13.30;63.70;;;;;;20753703;28;20034;-64
2021/04/10 02:22:03;;;;;;;9.85;5.28;;;13.20;63.70;;;;;;20754549;28;20039;-60
2021/04/10 02:32:10;;;;;;;7.95;5.72;;;13.20;64.00;;;;;;20753751;28;20033;-60
2021/04/10 02:42:14;;;;;;;9.98;5.88;;;13.20;64.10;;;;;;20753151;28;20038;-60
2021/04/10 02:52:20;;;;;;;10.07;6.82;;;13.10;64.30;;;;;;20752638;28;20026;-65
2021/04/10 03:02:22;;;;;;;12.70;6.72;;;13.10;64.20;;;;;;20684427;28;20053;-60
2021/04/10 03:12:25;;;;;;;10.18;6.28;;;13.00;64.40;;;;;;20670030;28;20026;-58
2021/04/10 03:22:26;;;;;;;9.55;6.03;;;13.00;64.60;;;;;;20669758;28;20070;-60
2021/04/10 03:32:27;;;;;;;8.00;6.10;;;13.00;64.70;;;;;;20668145;28;20042;-59
2021/04/10 03:42:40;;;;;;;10.48;6.43;;;13.00;65.10;;;;;;20668034;28;20041;-60
2021/04/10 03:52:41;;;;;;;11.20;7.43;;;13.10;65.40;;;;;;20667500;28;20026;-60
2021/04/10 04:02:42;;;;;;;11.38;7.53;;;13.20;65.70;;;;;;20741419;28;20514;-59
2021/04/10 04:12:43;;;;;;;9.23;5.88;;;13.20;65.20;;;;;;20759971;28;20087;-63
2021/04/10 04:22:44;;;;;;;12.00;6.53;;;13.20;65.00;;;;;;20763881;28;20038;-63
2021/04/10 04:32:45;;;;;;;10.95;7.35;;;13.20;65.00;;;;;;20762911;28;20022;-64
2021/04/10 04:42:45;;;;;;;14.02;6.88;;;13.20;65.40;;;;;;20765082;28;20044;-62
2021/04/10 04:52:46;;;;;;;15.70;8.43;;;13.20;66.10;;;;;;20765264;28;20018;-61
2021/04/10 05:02:47;;;;;;;13.13;6.90;;;13.10;66.50;;;;;;20761567;28;20188;-61
2021/04/10 05:12:48;;;;;;;13.00;7.40;;;13.10;66.60;;;;;;20759043;28;20022;-60
2021/04/10 05:22:53;;;;;;;16.90;9.65;;;13.10;66.90;;;;;;20758995;28;20029;-60
2021/04/10 05:32:53;;;;;;;14.80;7.75;;;13.00;67.70;;;;;;20758866;28;20554;-60
2021/04/10 05:42:54;;;;;;;15.63;7.93;;;12.90;67.60;;;;;;20757822;28;20453;-60
2021/04/10 05:52:55;;;;;;;14.93;9.10;;;13.00;67.50;;;;;;20757243;28;20021;-60
2021/04/10 06:02:56;;;;;;;13.88;8.48;;;12.90;67.90;;;;;;20756039;28;20050;-60
2021/04/10 06:12:57;;;;;;;16.40;9.00;;;12.90;67.70;;;;;;20755881;28;20485;-60
2021/04/10 06:22:58;;;;;;;12.15;8.40;;;12.90;68.00;;;;;;20753114;28;20455;-60
2021/04/10 06:32:58;;;;;;;18.35;9.25;;;12.90;68.10;;;;;;20753328;28;20041;-60
2021/04/10 06:43:02;;;;;;;14.60;9.68;;;13.00;67.80;;;;;;20753457;28;20096;-60
2021/04/10 06:53:07;;;;;;;25.73;18.48;;;13.00;67.70;;;;;;20735274;28;20033;-60
2021/04/10 07:03:07;;;;;;;15.07;10.00;;;13.00;68.00;;;;;;20751907;28;20057;-60
2021/04/10 07:13:08;;;;;;;17.05;11.13;;;13.00;67.80;;;;;;20750914;28;20475;-61
2021/04/10 07:23:12;;;;;;;17.58;9.48;;;13.10;67.60;;;;;;20749892;28;20042;-60
2021/04/10 07:33:22;;;;;;;15.17;9.77;;;13.20;67.40;;;;;;20750031;28;20056;-60
2021/04/10 07:43:31;;;;;;;15.50;9.55;;;13.30;67.30;;;;;;20748530;28;20041;-59
2021/04/10 07:53:32;;;;;;;12.85;8.68;;;13.70;66.30;;;;;;20749329;28;20026;-65
2021/04/10 08:03:40;;;;;;;15.43;7.93;;;14.20;64.40;;;;;;20729514;28;20049;-64
2021/04/10 08:13:55;;;;;;;13.35;7.45;;;14.30;63.80;;;;;;20747622;28;20029;-62
2021/04/10 08:23:56;;;;;;;14.30;7.88;;;14.50;63.20;;;;;;20746250;28;20081;-63
2021/04/10 08:33:57;;;;;;;12.75;7.72;;;14.40;63.20;;;;;;20746578;28;20524;-60
2021/04/10 08:43:59;;;;;;;16.23;8.77;;;14.70;62.90;;;;;;20700355;28;20156;-60
2021/04/10 08:54:01;;;;;;;15.50;8.18;;;14.80;62.50;;;;;;20668281;28;20047;-60
2021/04/10 09:04:02;;;;;;;14.52;7.32;;;15.10;61.50;;;;;;20679063;28;20490;-60
2021/04/10 09:14:03;;;;;;;13.90;8.73;;;15.10;61.10;;;;;;20678648;28;20137;-60
2021/04/10 09:24:20;;;;;;;20.83;9.38;;;15.10;60.90;;;;;;20678730;28;20442;-60
2021/04/10 09:34:43;;;;;;;15.93;8.52;;;15.40;60.50;;;;;;20677614;28;20030;-59
2021/04/10 09:45:05;;;;;;;13.57;10.68;;;15.50;59.60;;;;;;20676167;28;20049;-61
2021/04/10 09:55:08;;;;;;;13.43;9.30;;;15.40;60.10;;;;;;20675526;28;20046;-61
2021/04/10 10:05:09;;;;;;;18.35;11.68;;;15.20;60.80;;;;;;20675012;28;20042;-60
2021/04/10 10:15:30;;;;;;;17.70;11.23;;;15.20;61.10;;;;;;20673320;28;20027;-59
2021/04/10 10:25:31;;;;;;;16.13;11.13;;;15.60;59.30;;;;;;20672953;28;20054;-60
2021/04/10 10:35:32;;;;;;;17.98;11.35;;;15.50;59.70;;;;;;20672337;28;20065;-59
2021/04/10 10:45:42;;;;;;;6.32;4.00;;;15.60;59.40;;;;;;20708480;28;20363;-55
2021/04/10 10:55:56;;;;;;;12.52;8.15;;;15.60;58.90;;;;;;20749634;28;20042;-55
2021/04/10 11:05:57;;;;;;;13.50;8.50;;;16.30;56.50;;;;;;20747231;28;20405;-60
2021/04/10 11:15:58;;;;;;;14.05;8.50;;;16.80;55.40;;;;;;20750248;28;20029;-60
2021/04/10 11:25:58;;;;;;;14.38;9.63;;;16.50;56.70;;;;;;20749297;28;20038;-60
2021/04/10 11:36:00;;;;;;;13.38;8.50;;;16.30;57.20;;;;;;20749073;28;20053;-62
2021/04/10 11:46:01;;;;;;;17.52;12.38;;;16.50;57.30;;;;;;20747399;28;20034;-66
2021/04/10 11:56:23;;;;;;;16.92;9.07;;;16.70;56.90;;;;;;20729668;28;20475;-61
2021/04/10 12:06:37;;;;;;;16.08;9.15;;;16.80;56.60;;;;;;20748296;28;20038;-60
2021/04/10 12:16:39;;;;;;;18.47;9.37;;;17.10;55.90;;;;;;20745818;28;20125;-60
2021/04/10 12:26:40;;;;;;;26.08;16.98;;;16.90;56.30;;;;;;20747672;28;20084;-59
2021/04/10 12:36:40;;;;;;;15.20;11.20;;;16.80;56.90;;;;;;20762644;28;20026;-61
2021/04/10 12:46:41;;;;;;;17.10;11.60;;;17.20;55.60;;;;;;20761915;28;20139;-60
2021/04/10 12:56:42;;;;;;;17.42;11.15;;;17.20;56.00;;;;;;20760926;28;20042;-59
2021/04/10 13:06:42;;;;;;;13.32;10.48;;;17.70;54.90;;;;;;20760343;28;20080;-64
2021/04/10 13:16:49;;;;;;;12.35;9.48;;;18.20;54.00;;;;;;20758439;28;20385;-61
2021/04/10 13:26:51;;;;;;;16.13;10.20;;;18.40;53.10;;;;;;20758772;28;20386;-63
2021/04/10 13:36:52;;;;;;;13.02;8.80;;;18.40;53.20;;;;;;20740732;28;20057;-64
2021/04/10 13:46:53;;;;;;;17.98;11.00;;;18.30;53.40;;;;;;20757326;28;20048;-64
2021/04/10 13:56:56;;;;;;;9.98;8.38;;;18.10;54.50;;;;;;20756261;28;20054;-63
2021/04/10 14:06:57;;;;;;;15.30;9.27;;;18.40;53.80;;;;;;20755971;28;20050;-65
2021/04/10 14:16:58;;;;;;;14.00;8.00;;;18.40;53.20;;;;;;20755075;28;20080;-66
2021/04/10 14:26:59;;;;;;;10.73;6.07;;;18.70;52.20;;;;;;20737709;28;20103;-62
2021/04/10 14:37:00;;;;;;;11.68;7.10;;;18.90;51.20;;;;;;20753341;28;20022;-60
2021/04/10 14:47:01;;;;;;;11.50;6.47;;;19.10;50.90;;;;;;20752550;28;20048;-61
2021/04/10 14:57:03;;;;;;;11.00;5.88;;;19.20;50.00;;;;;;20749278;28;20506;-59
2021/04/10 15:07:03;;;;;;;9.88;6.00;;;19.30;49.30;;;;;;20732597;28;20119;-58
2021/04/10 15:17:04;;;;;;;9.68;5.43;;;19.20;49.60;;;;;;20749603;28;20026;-61
2021/04/10 15:27:06;;;;;;;7.93;4.18;;;19.20;49.00;;;;;;20749882;28;20044;-60
2021/04/10 15:37:07;;;;;;;7.55;4.22;;;19.60;46.90;;;;;;20749750;28;20405;-61
2021/04/10 15:47:08;;;;;;;8.40;4.28;;;19.60;47.10;;;;;;20750279;28;20081;-59
2021/04/10 15:57:10;;;;;;;8.35;3.75;;;19.70;46.80;;;;;;20747732;28;20042;-58
2021/04/10 16:07:11;;;;;;;5.93;3.35;;;19.70;45.60;;;;;;20748753;28;20514;-59
2021/04/10 16:17:12;;;;;;;8.93;3.17;;;19.60;46.00;;;;;;20774589;28;20417;-59
2021/04/10 16:27:12;;;;;;;6.75;2.60;;;19.50;45.70;;;;;;20755719;28;20069;-59
2021/04/10 16:37:13;;;;;;;5.05;2.83;;;19.60;45.20;;;;;;20773952;28;20052;-58
2021/04/10 16:47:14;;;;;;;5.38;2.90;;;19.70;44.90;;;;;;20773392;28;20141;-60
2021/04/10 16:57:15;;;;;;;6.22;2.75;;;19.80;45.00;;;;;;20772856;28;20057;-59
2021/04/10 17:07:17;;;;;;;7.78;2.97;;;19.70;45.00;;;;;;20746476;28;20113;-60
2021/04/10 17:17:17;;;;;;;7.00;2.85;;;19.70;44.20;;;;;;20721988;28;20018;-60
2021/04/10 17:27:18;;;;;;;5.90;2.97;;;19.80;43.30;;;;;;20715924;28;20081;-59
2021/04/10 17:37:19;;;;;;;8.27;3.60;;;19.70;43.30;;;;;;20705513;28;20378;-66
2021/04/10 17:47:20;;;;;;;10.00;3.70;;;19.60;43.60;;;;;;20714799;28;20046;-61
2021/04/10 17:57:20;;;;;;;4.82;2.60;;;19.60;44.00;;;;;;20730079;28;20360;-62
2021/04/10 18:07:21;;;;;;;7.20;2.63;;;19.60;43.50;;;;;;20753819;28;20048;-61
2021/04/10 18:17:22;;;;;;;7.53;2.97;;;19.30;42.20;;;;;;20748009;28;20033;-62
2021/04/10 18:27:22;;;;;;;5.75;3.30;;;19.20;42.90;;;;;;20745450;28;20537;-63
2021/04/10 18:37:24;;;;;;;6.95;3.80;;;19.00;43.60;;;;;;20745579;28;20026;-61
2021/04/10 18:47:25;;;;;;;7.32;3.67;;;18.90;44.60;;;;;;20750607;28;20544;-62
2021/04/10 18:57:28;;;;;;;7.30;3.40;;;19.20;44.70;;;;;;20752188;28;20460;-61
2021/04/10 19:07:28;;;;;;;10.53;5.03;;;18.90;45.10;;;;;;20752017;28;20470;-62
2021/04/10 19:17:29;;;;;;;6.75;3.85;;;18.70;46.00;;;;;;20750985;28;20391;-66
2021/04/10 19:27:30;;;;;;;7.15;3.80;;;18.60;49.10;;;;;;20749656;28;20544;-64
2021/04/10 19:37:31;;;;;;;8.65;6.28;;;17.70;54.40;;;;;;20748941;28;20025;-65
2021/04/10 19:47:32;;;;;;;7.88;3.40;;;17.20;56.30;;;;;;20748844;28;20065;-65
2021/04/10 19:57:34;;;;;;;12.98;5.43;;;16.60;61.20;;;;;;20748316;28;20042;-62
2021/04/10 20:07:35;;;;;;;7.65;3.15;;;16.40;64.20;;;;;;20748051;28;20046;-65
2021/04/10 20:17:38;;;;;;;7.38;3.25;;;15.60;66.20;;;;;;20747926;28;20097;-64
2021/04/10 20:27:39;;;;;;;5.43;2.67;;;15.40;66.30;;;;;;20747537;28;20101;-61
2021/04/10 20:37:39;;;;;;;6.93;3.15;;;15.30;66.40;;;;;;20746906;28;20026;-61
2021/04/10 20:47:41;;;;;;;8.23;2.60;;;15.20;68.30;;;;;;20745248;28;20121;-63
2021/04/10 20:57:41;;;;;;;9.93;2.72;;;15.10;70.00;;;;;;20761247;28;20042;-64
2021/04/10 21:07:42;;;;;;;12.82;8.07;;;14.90;70.00;;;;;;20761007;28;20073;-63
2021/04/10 21:17:43;;;;;;;6.53;2.90;;;14.70;71.60;;;;;;20760292;28;20053;-64
2021/04/10 21:27:44;;;;;;;6.65;2.95;;;14.70;72.50;;;;;;20759427;28;20046;-61
2021/04/10 21:37:45;;;;;;;8.18;4.22;;;14.80;72.00;;;;;;20758732;28;20104;-61
2021/04/10 21:47:49;;;;;;;5.53;3.55;;;14.80;72.60;;;;;;20757815;28;20033;-61
2021/04/10 21:57:50;;;;;;;8.27;4.53;;;14.90;71.90;;;;;;20757733;28;20124;-63
2021/04/10 22:07:56;;;;;;;6.28;3.10;;;14.90;72.80;;;;;;20755944;28;20045;-65
2021/04/10 22:17:57;;;;;;;5.72;3.67;;;14.90;71.80;;;;;;20754642;28;20108;-63
2021/04/10 22:27:59;;;;;;;9.18;3.85;;;14.80;71.60;;;;;;20754645;28;20066;-63
2021/04/10 22:38:01;;;;;;;10.23;3.90;;;15.00;70.40;;;;;;20754925;28;20589;-64
2021/04/10 22:48:03;;;;;;;5.40;3.38;;;14.90;70.50;;;;;;20753229;28;20045;-63
2021/04/10 22:58:03;;;;;;;4.93;3.03;;;14.90;70.80;;;;;;20751921;28;20128;-60
2021/04/10 23:08:05;;;;;;;7.07;3.70;;;14.90;70.60;;;;;;20752283;28;20038;-59
2021/04/10 23:18:07;;;;;;;6.65;3.78;;;14.90;71.40;;;;;;20751221;28;20060;-60
2021/04/10 23:28:09;;;;;;;7.30;5.25;;;15.00;71.90;;;;;;20751136;28;20581;-63
2021/04/10 23:38:10;;;;;;;8.10;5.00;;;14.90;72.40;;;;;;20750248;28;20033;-62
2021/04/10 23:48:10;;;;;;;7.28;4.28;;;14.70;73.00;;;;;;20749902;28;20036;-64
2021/04/10 23:58:11;;;;;;;8.77;5.03;;;14.70;72.70;;;;;;20746997;28;20042;-65
